createdAt,value
2019-03-20T00:01:56.075Z,5.53
2019-03-20T00:07:52.622Z,4.67
2019-03-20T00:10:40.440Z,4.70
2019-03-20T00:13:28.306Z,3.97
2019-03-20T00:16:16.224Z,4.53
2019-03-20T00:19:04.099Z,3.77
2019-03-20T00:22:12.569Z,4.97
2019-03-20T00:25:00.490Z,4.00
2019-03-20T00:27:50.417Z,3.70
2019-03-20T00:30:58.462Z,4.60
2019-03-20T00:33:27.111Z,4.87
2019-03-20T00:36:14.999Z,5.17
2019-03-20T00:39:02.913Z,5.07
2019-03-20T00:41:50.754Z,4.30
2019-03-20T00:44:38.523Z,4.20
2019-03-20T00:47:26.480Z,3.20
2019-03-20T00:50:14.363Z,4.47
2019-03-20T00:56:12.024Z,4.37
2019-03-20T00:58:59.781Z,4.23
2019-03-20T01:01:47.612Z,4.13
2019-03-20T01:04:56.090Z,5.37
2019-03-20T01:07:43.864Z,5.50
2019-03-20T01:10:52.342Z,4.80
2019-03-20T01:13:40.097Z,4.90
2019-03-20T01:16:28.041Z,4.80
2019-03-20T01:19:15.992Z,4.10
2019-03-20T01:22:03.918Z,3.80
2019-03-20T01:24:51.758Z,4.50
2019-03-20T01:27:39.647Z,4.40
2019-03-20T01:30:48.098Z,4.40
2019-03-20T01:33:35.949Z,4.03
2019-03-20T01:36:04.650Z,4.73
2019-03-20T01:38:52.409Z,3.97
2019-03-20T01:41:40.216Z,3.57
2019-03-20T01:44:08.864Z,3.40
2019-03-20T01:46:56.782Z,4.20
2019-03-20T01:49:44.629Z,3.23
2019-03-20T01:52:13.300Z,4.13
2019-03-20T01:55:01.196Z,4.00
2019-03-20T01:57:49.267Z,3.63
2019-03-20T02:03:05.718Z,4.20
2019-03-20T02:05:36.145Z,4.17
2019-03-20T02:08:04.770Z,3.50
2019-03-20T02:10:52.602Z,3.70
2019-03-20T02:13:40.464Z,3.70
2019-03-20T02:16:28.406Z,3.10
2019-03-20T02:19:16.367Z,4.17
2019-03-20T02:21:45.078Z,4.13
2019-03-20T02:24:32.939Z,3.73
2019-03-20T02:27:20.870Z,4.93
2019-03-20T02:32:45.998Z,5.73
2019-03-20T02:35:54.447Z,4.57
2019-03-20T02:38:42.325Z,3.47
2019-03-20T02:41:30.236Z,3.63
2019-03-20T02:44:18.113Z,4.20
2019-03-20T02:47:05.986Z,4.57
2019-03-20T02:49:53.800Z,3.30
2019-03-20T02:52:41.644Z,4.30
2019-03-20T02:55:50.124Z,3.23
2019-03-20T02:58:38.141Z,3.10
2019-03-20T03:01:25.900Z,3.63
2019-03-20T03:04:13.780Z,4.00
2019-03-20T03:07:01.690Z,3.40
2019-03-20T03:09:49.650Z,3.10
2019-03-20T03:12:18.336Z,3.10
2019-03-20T03:15:06.128Z,3.37
2019-03-20T03:17:53.999Z,2.93
2019-03-20T03:20:41.937Z,3.20
2019-03-20T03:23:29.785Z,3.77
2019-03-20T03:26:17.915Z,3.80
2019-03-20T03:29:07.412Z,3.43
2019-03-20T03:31:55.310Z,2.93
2019-03-20T03:34:26.007Z,3.47
2019-03-20T03:37:13.839Z,3.37
2019-03-20T03:40:01.778Z,3.93
2019-03-20T03:42:49.704Z,2.77
2019-03-20T03:45:58.337Z,3.20
2019-03-20T03:48:46.160Z,3.30
2019-03-20T03:51:34.127Z,3.77
2019-03-20T04:00:44.135Z,2.90
2019-03-20T04:03:32.008Z,3.33
2019-03-20T04:06:42.206Z,3.37
2019-03-20T04:09:30.358Z,3.30
2019-03-20T04:11:59.353Z,3.57
2019-03-20T04:14:47.372Z,3.57
2019-03-20T04:17:55.847Z,2.87
2019-03-20T04:20:43.695Z,3.53
2019-03-20T04:23:31.641Z,3.33
2019-03-20T04:26:19.544Z,3.67
2019-03-20T04:29:07.370Z,3.10
2019-03-20T04:31:55.303Z,3.73
2019-03-20T04:34:24.004Z,3.60
2019-03-20T04:37:11.798Z,3.50
2019-03-20T04:39:40.489Z,3.13
2019-03-20T04:42:28.499Z,4.33
2019-03-20T04:45:16.302Z,3.40
2019-03-20T04:48:05.666Z,3.87
2019-03-20T04:50:53.550Z,3.10
2019-03-20T04:53:22.355Z,4.07
2019-03-20T04:59:17.074Z,3.73
2019-03-20T05:02:05.384Z,4.60
2019-03-20T05:04:46.883Z,5.57
2019-03-20T05:07:16.503Z,6.10
2019-03-20T05:10:05.786Z,6.00
2019-03-20T05:12:34.414Z,5.73
2019-03-20T05:24:11.250Z,5.20
2019-03-20T05:26:59.295Z,5.13
2019-03-20T05:29:48.016Z,4.47
2019-03-20T05:32:35.978Z,4.37
2019-03-20T05:35:44.419Z,4.33
2019-03-20T05:38:32.339Z,4.00
2019-03-20T05:44:13.626Z,3.57
2019-03-20T05:49:49.590Z,3.47
2019-03-20T05:52:37.632Z,3.30
2019-03-20T05:55:46.278Z,3.87
2019-03-20T05:58:34.408Z,4.23
2019-03-20T06:04:29.111Z,3.40
2019-03-20T06:07:37.576Z,3.33
2019-03-20T06:10:46.048Z,3.13
2019-03-20T06:16:41.194Z,3.20
2019-03-20T06:19:29.235Z,4.10
2019-03-20T06:21:57.930Z,4.50
2019-03-20T06:24:26.584Z,4.07
2019-03-20T06:26:55.258Z,3.57
2019-03-20T06:29:43.394Z,3.90
2019-03-20T06:32:31.174Z,3.60
2019-03-20T06:34:59.813Z,4.07
2019-03-20T06:37:32.693Z,3.53
2019-03-20T06:40:18.621Z,4.03
2019-03-20T06:42:47.231Z,3.07
2019-03-20T06:48:22.737Z,4.17
2019-03-20T06:50:51.384Z,3.80
2019-03-20T06:53:20.087Z,3.57
2019-03-20T06:56:07.935Z,5.10
2019-03-20T06:58:55.741Z,3.83
2019-03-20T07:02:04.168Z,3.50
2019-03-20T07:05:12.651Z,4.13
2019-03-20T07:07:44.342Z,3.87
2019-03-20T07:10:51.253Z,2.93
2019-03-20T07:13:39.121Z,3.30
2019-03-20T07:16:07.833Z,3.63
2019-03-20T07:18:55.688Z,3.27
2019-03-20T07:21:43.596Z,3.37
2019-03-20T07:24:31.457Z,3.63
2019-03-20T07:27:00.124Z,3.80
2019-03-20T07:29:28.781Z,5.20
2019-03-20T07:31:57.397Z,3.93
2019-03-20T07:34:45.176Z,4.20
2019-03-20T07:37:13.860Z,4.83
2019-03-20T07:40:01.739Z,5.08
2019-03-20T07:42:49.642Z,4.83
2019-03-20T07:45:18.345Z,3.00
2019-03-20T07:47:47.043Z,3.67
2019-03-20T07:50:15.723Z,4.00
2019-03-20T07:53:03.505Z,3.17
2019-03-20T07:55:32.195Z,2.60
2019-03-20T07:58:20.104Z,2.93
2019-03-20T08:00:48.808Z,2.90
2019-03-20T08:03:17.503Z,3.43
2019-03-20T08:05:46.221Z,3.03
2019-03-20T08:08:34.055Z,3.30
2019-03-20T08:11:21.867Z,5.25
2019-03-20T08:14:09.676Z,6.95
2019-03-20T08:16:57.518Z,6.70
2019-03-20T08:19:45.476Z,6.35
2019-03-20T08:22:33.358Z,5.40
2019-03-20T08:25:02.006Z,5.80
2019-03-20T08:27:49.956Z,6.07
2019-03-20T08:30:58.473Z,5.07
2019-03-20T08:33:46.348Z,4.57
2019-03-20T08:36:34.116Z,4.70
2019-03-20T08:39:21.973Z,4.33
2019-03-20T08:42:09.783Z,3.20
2019-03-20T08:44:38.415Z,2.00
2019-03-20T08:47:07.115Z,2.50
2019-03-20T08:49:55.004Z,2.37
2019-03-20T08:52:23.683Z,2.17
2019-03-20T08:55:11.514Z,2.20
2019-03-20T08:57:40.217Z,2.33
2019-03-20T09:00:28.220Z,2.03
2019-03-20T09:03:16.079Z,2.53
2019-03-20T09:05:44.621Z,1.57
2019-03-20T09:08:32.559Z,2.80
2019-03-20T09:11:20.432Z,1.50
2019-03-20T09:13:49.118Z,1.80
2019-03-20T09:16:36.865Z,1.87
2019-03-20T09:21:58.376Z,1.83
2019-03-20T09:24:46.156Z,2.00
2019-03-20T09:27:34.025Z,2.03
2019-03-20T09:30:21.897Z,1.30
2019-03-20T09:33:30.331Z,1.30
2019-03-20T09:36:18.135Z,1.00
2019-03-20T09:39:05.877Z,1.37
2019-03-20T09:41:53.644Z,0.87
2019-03-20T09:44:41.405Z,1.60
2019-03-20T09:47:29.266Z,1.37
2019-03-20T09:50:17.075Z,1.23
2019-03-20T09:53:04.839Z,1.57
2019-03-20T09:55:52.700Z,1.47
2019-03-20T09:58:40.536Z,1.50
2019-03-20T10:01:28.399Z,1.30
2019-03-20T10:03:56.905Z,1.30
2019-03-20T10:06:44.826Z,2.53
2019-03-20T10:09:32.661Z,1.50
2019-03-20T10:12:20.613Z,1.30
2019-03-20T10:15:08.422Z,1.63
2019-03-20T10:17:56.266Z,1.47
2019-03-20T10:23:19.848Z,1.50
2019-03-20T10:26:07.667Z,1.67
2019-03-20T10:28:36.210Z,1.50
2019-03-20T10:31:24.037Z,1.30
2019-03-20T10:34:11.903Z,1.23
2019-03-20T10:36:59.776Z,1.23
2019-03-20T10:39:47.524Z,1.73
2019-03-20T10:42:35.394Z,1.80
2019-03-20T10:45:43.816Z,1.10
2019-03-20T10:48:31.620Z,1.30
2019-03-20T10:51:19.394Z,1.47
2019-03-20T10:54:07.247Z,1.50
2019-03-20T10:56:55.039Z,1.40
2019-03-20T10:59:42.895Z,1.80
2019-03-20T11:02:30.658Z,1.80
2019-03-20T11:05:18.455Z,1.37
2019-03-20T11:08:06.326Z,1.87
2019-03-20T11:10:54.284Z,1.67
2019-03-20T11:13:42.052Z,1.17
2019-03-20T11:16:29.914Z,1.00
2019-03-20T11:18:58.529Z,1.57
2019-03-20T11:21:46.398Z,1.57
2019-03-20T11:24:34.276Z,1.87
2019-03-20T11:27:22.065Z,1.40
2019-03-20T11:29:50.805Z,1.40
2019-03-20T11:32:19.489Z,1.03
2019-03-20T11:34:47.992Z,2.10
2019-03-20T11:37:16.674Z,2.50
2019-03-20T11:40:04.588Z,1.53
2019-03-20T11:42:52.468Z,1.53
2019-03-20T11:45:23.398Z,1.40
2019-03-20T11:47:51.637Z,1.53
2019-03-20T11:50:58.731Z,1.70
2019-03-20T11:53:46.400Z,1.30
2019-03-20T11:56:34.163Z,1.23
2019-03-20T11:59:21.951Z,1.80
2019-03-20T12:02:30.409Z,1.90
2019-03-20T12:05:18.278Z,1.17
2019-03-20T12:08:06.140Z,1.57
2019-03-20T12:11:15.906Z,1.10
2019-03-20T12:13:44.962Z,1.50
2019-03-20T12:16:32.782Z,1.57
2019-03-20T12:19:01.400Z,1.47
2019-03-20T12:21:49.235Z,1.20
2019-03-20T12:24:36.981Z,1.83
2019-03-20T12:27:24.805Z,1.20
2019-03-20T12:29:53.503Z,1.13
2019-03-20T12:32:41.408Z,2.40
2019-03-20T12:35:49.875Z,1.20
2019-03-20T12:38:37.699Z,1.70
2019-03-20T12:41:25.512Z,1.13
2019-03-20T12:44:13.293Z,1.60
2019-03-20T12:47:01.153Z,1.17
2019-03-20T12:49:29.647Z,1.97
2019-03-20T12:52:17.543Z,1.87
2019-03-20T12:55:26.028Z,1.30
2019-03-20T12:57:54.760Z,1.03
2019-03-20T13:01:03.206Z,1.40
2019-03-20T13:03:31.887Z,1.47
2019-03-20T13:06:19.705Z,1.23
2019-03-20T13:08:48.385Z,1.20
2019-03-20T13:11:36.128Z,1.23
2019-03-20T13:14:04.885Z,1.37
2019-03-20T13:16:33.490Z,1.97
2019-03-20T13:19:21.340Z,1.23
2019-03-20T13:22:09.088Z,1.57
2019-03-20T13:24:56.786Z,1.60
2019-03-20T13:27:25.402Z,1.67
2019-03-20T13:30:20.043Z,1.10
2019-03-20T13:33:02.741Z,1.67
2019-03-20T13:35:50.578Z,1.27
2019-03-20T13:38:38.451Z,2.00
2019-03-20T13:41:26.280Z,1.60
2019-03-20T13:44:14.104Z,2.13
2019-03-20T13:47:01.966Z,1.80
2019-03-20T13:49:49.841Z,1.70
2019-03-20T13:52:37.548Z,1.33
2019-03-20T13:55:25.499Z,1.67
2019-03-20T13:58:13.303Z,1.70
2019-03-20T14:00:41.951Z,2.50
2019-03-20T14:03:10.565Z,1.13
2019-03-20T14:05:39.167Z,1.73
2019-03-20T14:08:27.041Z,1.40
2019-03-20T14:11:14.876Z,1.73
2019-03-20T14:13:43.562Z,1.43
2019-03-20T14:16:12.210Z,1.93
2019-03-20T14:19:00.074Z,1.43
2019-03-20T14:21:28.724Z,1.50
2019-03-20T14:24:16.465Z,1.47
2019-03-20T14:27:04.296Z,1.33
2019-03-20T14:29:52.172Z,2.00
2019-03-20T14:32:20.682Z,1.27
2019-03-20T14:35:08.580Z,1.67
2019-03-20T14:37:56.404Z,1.50
2019-03-20T14:41:04.872Z,1.60
2019-03-20T14:43:52.690Z,1.83
2019-03-20T14:46:21.375Z,1.60
2019-03-20T14:48:49.988Z,1.53
2019-03-20T14:51:37.864Z,1.47
2019-03-20T14:54:06.509Z,1.20
2019-03-20T14:56:54.380Z,1.07
2019-03-20T14:59:42.126Z,2.03
2019-03-20T15:02:10.809Z,1.60
2019-03-20T15:04:39.433Z,1.50
2019-03-20T15:07:08.069Z,1.50
2019-03-20T15:09:55.949Z,1.60
2019-03-20T15:12:24.519Z,1.27
2019-03-20T15:15:12.322Z,1.00
2019-03-20T15:18:00.152Z,1.67
2019-03-20T15:20:48.021Z,1.60
2019-03-20T15:23:35.890Z,1.07
2019-03-20T15:26:04.571Z,1.50
2019-03-20T15:28:52.409Z,1.20
2019-03-20T15:31:40.219Z,1.43
2019-03-20T15:34:27.999Z,1.30
2019-03-20T15:37:15.745Z,1.40
2019-03-20T15:40:03.576Z,1.70
2019-03-20T15:42:51.451Z,2.00
2019-03-20T15:45:39.362Z,2.20
2019-03-20T15:48:07.978Z,1.30
2019-03-20T15:50:55.821Z,1.83
2019-03-20T15:53:24.518Z,1.33
2019-03-20T15:55:53.161Z,1.47
2019-03-20T15:58:41.061Z,1.40
2019-03-20T16:01:09.720Z,1.73
2019-03-20T16:03:57.678Z,1.60
2019-03-20T16:06:45.529Z,1.63
2019-03-20T16:09:33.363Z,1.07
2019-03-20T16:12:21.219Z,1.50
2019-03-20T16:15:09.030Z,1.60
2019-03-20T16:17:56.942Z,1.20
2019-03-20T16:20:25.548Z,1.87
2019-03-20T16:23:13.381Z,1.40
2019-03-20T16:25:41.914Z,1.60
2019-03-20T16:28:10.536Z,1.27
2019-03-20T16:30:58.307Z,1.27
2019-03-20T16:33:26.840Z,2.03
2019-03-20T16:36:14.672Z,1.87
2019-03-20T16:39:02.625Z,1.70
2019-03-20T16:41:50.442Z,2.43
2019-03-20T16:44:38.315Z,1.90
2019-03-20T16:47:26.189Z,1.53
2019-03-20T16:50:13.965Z,1.63
2019-03-20T16:53:01.792Z,1.70
2019-03-20T16:55:49.643Z,1.70
2019-03-20T16:58:37.408Z,1.30
2019-03-20T17:01:06.206Z,1.67
2019-03-20T17:03:54.077Z,1.70
2019-03-20T17:06:42.045Z,1.20
2019-03-20T17:12:04.457Z,1.03
2019-03-20T17:14:33.081Z,1.43
2019-03-20T17:17:01.581Z,1.60
2019-03-20T17:20:10.061Z,1.57
2019-03-20T17:22:58.541Z,1.47
2019-03-20T17:25:46.667Z,1.60
2019-03-20T17:28:34.636Z,1.80
2019-03-20T17:31:22.422Z,1.57
2019-03-20T17:36:44.370Z,1.70
2019-03-20T17:39:13.478Z,1.90
2019-03-20T17:42:01.478Z,1.80
2019-03-20T17:44:49.617Z,2.23
2019-03-20T17:47:18.367Z,1.70
2019-03-20T17:50:06.271Z,1.63
2019-03-20T17:52:54.119Z,1.70
2019-03-20T17:55:42.054Z,2.00
2019-03-20T17:58:29.874Z,1.83
2019-03-20T18:01:17.819Z,2.50
2019-03-20T18:04:05.632Z,2.60
2019-03-20T18:06:53.533Z,2.03
2019-03-20T18:09:41.451Z,1.60
2019-03-20T18:12:29.432Z,2.07
2019-03-20T18:15:17.247Z,1.40
2019-03-20T18:17:46.256Z,1.50
2019-03-20T18:20:34.605Z,2.40
2019-03-20T18:23:22.614Z,1.83
2019-03-20T18:26:10.862Z,2.00
2019-03-20T18:28:59.345Z,2.00
2019-03-20T18:31:27.977Z,2.20
2019-03-20T18:34:15.872Z,2.47
2019-03-20T18:37:03.718Z,2.37
2019-03-20T18:39:51.585Z,2.20
2019-03-20T18:42:39.445Z,2.03
2019-03-20T18:45:48.003Z,2.13
2019-03-20T18:48:36.260Z,2.87
2019-03-20T18:51:25.416Z,2.17
2019-03-20T18:54:13.284Z,2.73
2019-03-20T18:57:01.180Z,2.70
2019-03-20T18:59:49.268Z,2.63
2019-03-20T19:02:37.139Z,2.57
2019-03-20T19:05:45.623Z,6.93
2019-03-20T19:08:33.665Z,5.93
2019-03-20T19:11:04.064Z,5.60
2019-03-20T19:13:52.102Z,4.60
2019-03-20T19:16:39.923Z,3.17
2019-03-20T19:19:27.746Z,4.07
2019-03-20T19:22:36.205Z,3.40
2019-03-20T19:27:58.425Z,3.00
2019-03-20T19:31:06.881Z,2.93
2019-03-20T19:33:54.759Z,3.83
2019-03-20T19:36:30.999Z,2.83
2019-03-20T19:39:18.729Z,3.50
2019-03-20T19:42:06.480Z,3.13
2019-03-20T19:44:54.352Z,4.33
2019-03-20T19:47:42.112Z,3.20
2019-03-20T19:50:50.991Z,3.83
2019-03-20T19:53:38.987Z,3.93
2019-03-20T19:56:26.858Z,3.67
2019-03-20T19:59:14.710Z,3.67
2019-03-20T20:02:02.870Z,4.00
2019-03-20T20:04:50.650Z,4.10
2019-03-20T20:07:19.319Z,3.87
2019-03-20T20:09:48.332Z,4.03
2019-03-20T20:12:36.249Z,4.37
2019-03-20T20:15:45.109Z,4.17
2019-03-20T20:21:28.294Z,4.13
2019-03-20T20:24:16.221Z,4.80
2019-03-20T20:27:04.149Z,5.33
2019-03-20T20:29:51.977Z,5.63
2019-03-20T20:32:39.909Z,4.17
2019-03-20T20:35:48.373Z,4.50
2019-03-20T20:38:17.000Z,5.27
2019-03-20T20:44:11.661Z,4.23
2019-03-20T20:47:20.088Z,5.37
2019-03-20T20:50:07.957Z,6.07
2019-03-20T20:52:55.856Z,4.93
2019-03-20T20:55:26.235Z,4.23
2019-03-20T20:58:14.186Z,5.00
2019-03-20T21:01:02.813Z,4.13
2019-03-20T21:03:50.671Z,4.13
2019-03-20T21:06:38.503Z,4.67
2019-03-20T21:09:47.222Z,3.90
2019-03-20T21:12:35.266Z,4.50
2019-03-20T21:15:42.687Z,4.63
2019-03-20T21:18:32.849Z,3.53
2019-03-20T21:21:21.055Z,4.13
2019-03-20T21:24:28.683Z,3.70
2019-03-20T21:27:36.191Z,4.97
2019-03-20T21:30:43.507Z,5.17
2019-03-20T21:33:34.002Z,6.10
2019-03-20T21:36:43.246Z,5.33
2019-03-20T21:39:32.713Z,4.30
2019-03-20T21:42:40.229Z,4.53
2019-03-20T21:45:47.772Z,4.17
2019-03-20T21:51:31.348Z,3.80
2019-03-20T21:54:38.742Z,4.17
2019-03-20T21:57:47.197Z,4.40
2019-03-20T22:00:56.090Z,4.23
2019-03-20T22:03:45.725Z,5.45
2019-03-20T22:06:53.566Z,3.73
2019-03-20T22:10:03.027Z,3.87
2019-03-20T22:13:18.676Z,3.77
2019-03-20T22:16:21.566Z,4.80
2019-03-20T22:19:29.004Z,3.80
2019-03-20T22:22:36.940Z,2.97
2019-03-20T22:25:27.210Z,4.03
2019-03-20T22:28:34.940Z,5.23
2019-03-20T22:34:37.223Z,4.47
2019-03-20T22:40:16.284Z,3.73
2019-03-20T22:43:30.122Z,4.03
2019-03-20T22:46:33.973Z,3.73
2019-03-20T22:49:41.690Z,3.90
2019-03-20T22:52:50.207Z,4.67
2019-03-20T22:55:57.335Z,5.50
2019-03-20T22:58:45.803Z,3.57
2019-03-20T23:01:52.967Z,4.50
2019-03-20T23:05:01.432Z,4.90
2019-03-20T23:08:09.985Z,4.43
2019-03-20T23:10:57.836Z,4.43
2019-03-20T23:13:26.374Z,4.00
2019-03-20T23:16:14.139Z,3.83
2019-03-20T23:19:01.878Z,4.37
2019-03-20T23:22:10.306Z,3.93
2019-03-20T23:24:58.185Z,3.63
2019-03-20T23:28:06.596Z,3.43
2019-03-20T23:31:15.089Z,3.63
2019-03-20T23:37:09.716Z,4.37
2019-03-20T23:39:57.541Z,4.30
2019-03-20T23:42:45.348Z,4.23
2019-03-20T23:45:53.767Z,3.90
2019-03-20T23:49:00.956Z,3.23
2019-03-20T23:52:09.385Z,3.07
2019-03-20T23:54:57.328Z,3.10
2019-03-20T23:57:45.018Z,4.03
